Time;durP1;ratioP1;P1;durP2;ratioP2;P2;SDS_P1;SDS_P2;PMS_P1;PMS_P2;Temp;Humidity;BMP_temperature;BMP_pressure;BME280_temperature;BME280_humidity;BME280_pressure;Samples;Min_cycle;Max_cycle;Signal;HPM_P1;HPM_P2
2022/11/18 00:00:19;;;;;;;5.53;3.40;;;;;;;;;;2086265;28;20041;-77
2022/11/18 00:01:38;;;;;;;3.75;3.42;;;;;;;;;;2085806;28;20024;-77
2022/11/18 00:02:57;;;;;;;4.60;3.92;;;;;;;;;;2087690;28;20029;-76
2022/11/18 00:04:16;;;;;;;4.45;3.53;;;;;;;;;;2078198;28;20065;-77
2022/11/18 00:05:35;;;;;;;4.30;3.25;;;;;;;;;;2079726;28;20038;-76
2022/11/18 00:06:54;;;;;;;5.28;3.10;;;;;;;;;;2084385;28;20025;-77
2022/11/18 00:08:13;;;;;;;4.80;3.35;;;;;;;;;;2075464;28;20426;-76
2022/11/18 00:09:32;;;;;;;6.50;3.15;;;;;;;;;;2071016;28;20037;-76
2022/11/18 00:10:51;;;;;;;3.53;3.17;;;;;;;;;;2080661;28;20025;-76
2022/11/18 00:15:26;;;;;;;3.53;3.22;;;;;;;;;;2083008;28;20048;-76
2022/11/18 00:16:52;;;;;;;4.70;3.42;;;;;;;;;;2073221;28;20073;-76
2022/11/18 00:18:11;;;;;;;5.25;3.17;;;;;;;;;;2080489;28;20072;-76
2022/11/18 00:19:32;;;;;;;4.03;3.30;;;;;;;;;;2071446;28;20057;-76
2022/11/18 00:20:50;;;;;;;5.20;3.55;;;;;;;;;;2073639;28;20026;-76
2022/11/18 00:22:11;;;;;;;3.08;2.83;;;;;;;;;;2082134;28;20434;-76
2022/11/18 00:23:30;;;;;;;3.30;2.95;;;;;;;;;;2078797;28;20037;-76
2022/11/18 00:24:49;;;;;;;4.30;3.65;;;;;;;;;;2084896;28;20398;-76
2022/11/18 00:26:11;;;;;;;4.00;3.60;;;;;;;;;;2084582;28;20033;-77
2022/11/18 00:27:30;;;;;;;3.80;3.20;;;;;;;;;;2083782;28;20029;-76
2022/11/18 00:28:49;;;;;;;4.18;3.50;;;;;;;;;;2075680;28;20041;-76
2022/11/18 00:30:08;;;;;;;5.90;3.30;;;;;;;;;;2069233;28;20116;-76
2022/11/18 00:31:27;;;;;;;4.43;3.92;;;;;;;;;;2080978;28;20025;-76
2022/11/18 00:32:46;;;;;;;3.72;3.35;;;;;;;;;;2084928;28;20033;-76
2022/11/18 00:34:05;;;;;;;5.35;3.78;;;;;;;;;;2083795;28;20038;-76
2022/11/18 00:35:24;;;;;;;4.25;3.83;;;;;;;;;;2084325;28;20120;-76
2022/11/18 00:36:43;;;;;;;4.40;3.30;;;;;;;;;;2072073;28;20157;-76
2022/11/18 00:38:02;;;;;;;5.07;3.40;;;;;;;;;;2069526;28;20524;-76
2022/11/18 00:39:21;;;;;;;4.32;3.17;;;;;;;;;;2070905;28;20419;-76
2022/11/18 00:40:40;;;;;;;3.30;3.00;;;;;;;;;;2078555;28;20037;-76
2022/11/18 00:43:37;;;;;;;3.70;3.40;;;;;;;;;;2084693;28;20037;-77
2022/11/18 00:44:56;;;;;;;5.55;3.70;;;;;;;;;;2084965;28;20037;-76
2022/11/18 00:46:15;;;;;;;3.65;3.33;;;;;;;;;;2082218;28;20040;-76
2022/11/18 00:47:34;;;;;;;5.30;3.47;;;;;;;;;;2084912;28;20495;-76
2022/11/18 00:48:53;;;;;;;3.97;2.78;;;;;;;;;;2084321;28;20029;-76
2022/11/18 00:50:12;;;;;;;3.38;3.08;;;;;;;;;;2074029;28;20120;-76
2022/11/18 00:51:30;;;;;;;5.15;3.25;;;;;;;;;;2073355;28;20018;-77
2022/11/18 00:52:49;;;;;;;4.68;3.38;;;;;;;;;;2080104;28;20026;-77
2022/11/18 00:54:08;;;;;;;4.78;2.95;;;;;;;;;;2082378;28;20033;-77
2022/11/18 00:55:27;;;;;;;3.30;3.03;;;;;;;;;;2075424;28;20038;-77
2022/11/18 00:56:46;;;;;;;3.28;2.97;;;;;;;;;;2078264;28;20037;-77
2022/11/18 00:58:05;;;;;;;3.55;3.05;;;;;;;;;;2083712;28;20049;-77
2022/11/18 00:59:24;;;;;;;6.28;2.92;;;;;;;;;;2077932;28;20046;-77
2022/11/18 01:00:44;;;;;;;3.40;3.10;;;;;;;;;;2076536;28;20037;-77
2022/11/18 01:02:04;;;;;;;5.28;3.50;;;;;;;;;;2079423;28;20321;-77
2022/11/18 01:03:24;;;;;;;3.47;2.92;;;;;;;;;;2074774;28;20034;-77
2022/11/18 01:04:43;;;;;;;3.63;2.67;;;;;;;;;;2072657;28;20038;-77
2022/11/18 01:06:02;;;;;;;5.32;2.90;;;;;;;;;;2074492;28;20111;-77
2022/11/18 01:07:21;;;;;;;3.55;2.80;;;;;;;;;;2082423;28;20033;-77
2022/11/18 01:08:40;;;;;;;2.88;2.50;;;;;;;;;;2076919;28;20041;-77
2022/11/18 01:09:59;;;;;;;4.63;2.65;;;;;;;;;;2081413;28;20079;-77
2022/11/18 01:14:33;;;;;;;3.55;2.65;;;;;;;;;;2086350;28;20053;-77
2022/11/18 01:15:53;;;;;;;2.13;1.85;;;;;;;;;;2085378;28;20032;-76
2022/11/18 01:17:12;;;;;;;3.33;2.30;;;;;;;;;;2084204;28;20037;-76
2022/11/18 01:18:31;;;;;;;4.55;1.80;;;;;;;;;;2076651;28;20085;-76
2022/11/18 01:19:50;;;;;;;2.20;2.05;;;;;;;;;;2075077;28;20494;-76
2022/11/18 01:21:09;;;;;;;3.22;2.53;;;;;;;;;;2075295;28;20033;-76
2022/11/18 01:22:28;;;;;;;4.90;2.40;;;;;;;;;;2084186;28;20032;-77
2022/11/18 01:23:47;;;;;;;3.47;2.58;;;;;;;;;;2076127;28;20518;-76
2022/11/18 01:25:07;;;;;;;4.18;2.58;;;;;;;;;;2081728;28;20029;-77
2022/11/18 01:26:25;;;;;;;3.78;2.83;;;;;;;;;;2086625;28;20494;-76
2022/11/18 01:27:44;;;;;;;2.53;2.33;;;;;;;;;;2083783;28;20075;-77
2022/11/18 01:29:03;;;;;;;3.13;2.67;;;;;;;;;;2087651;28;20053;-77
2022/11/18 01:30:22;;;;;;;3.38;2.85;;;;;;;;;;2076536;28;20105;-77
2022/11/18 01:31:41;;;;;;;2.58;2.38;;;;;;;;;;2082997;28;20029;-77
2022/11/18 01:33:01;;;;;;;5.70;2.90;;;;;;;;;;2084987;28;20037;-77
2022/11/18 01:34:20;;;;;;;3.00;2.70;;;;;;;;;;2083656;28;20029;-77
2022/11/18 01:35:40;;;;;;;3.38;2.35;;;;;;;;;;2084666;28;20033;-77
2022/11/18 01:36:59;;;;;;;3.25;2.95;;;;;;;;;;2077570;28;20065;-77
2022/11/18 01:38:18;;;;;;;5.38;3.45;;;;;;;;;;2072823;28;20034;-77
2022/11/18 01:39:37;;;;;;;3.03;2.72;;;;;;;;;;2081781;28;20406;-77
2022/11/18 01:40:56;;;;;;;3.28;2.97;;;;;;;;;;2077890;28;21427;-76
2022/11/18 01:42:16;;;;;;;4.93;2.72;;;;;;;;;;2077708;28;20025;-76
2022/11/18 01:43:50;;;;;;;3.28;2.90;;;;;;;;;;2077207;28;20550;-76
2022/11/18 01:45:15;;;;;;;2.97;2.47;;;;;;;;;;2071930;28;20037;-76
2022/11/18 01:46:34;;;;;;;2.85;2.65;;;;;;;;;;2076093;28;20033;-76
2022/11/18 01:47:56;;;;;;;5.43;2.80;;;;;;;;;;2068546;28;20438;-76
2022/11/18 01:49:15;;;;;;;5.97;3.10;;;;;;;;;;2070092;28;20042;-76
2022/11/18 01:50:36;;;;;;;3.47;2.67;;;;;;;;;;2083815;28;20512;-76
2022/11/18 01:51:56;;;;;;;3.55;2.55;;;;;;;;;;2086774;28;20489;-75
2022/11/18 01:53:18;;;;;;;2.85;2.42;;;;;;;;;;2076042;28;20030;-76
2022/11/18 01:54:39;;;;;;;3.83;2.45;;;;;;;;;;2083165;28;20040;-76
2022/11/18 01:56:01;;;;;;;3.38;2.55;;;;;;;;;;2077085;28;20045;-76
2022/11/18 01:57:21;;;;;;;2.90;2.58;;;;;;;;;;2073404;28;20465;-76
2022/11/18 01:58:44;;;;;;;3.10;2.50;;;;;;;;;;2072112;28;20598;-76
2022/11/18 02:00:04;;;;;;;2.63;2.38;;;;;;;;;;2071593;28;20037;-76
2022/11/18 02:01:23;;;;;;;4.95;2.35;;;;;;;;;;2075685;28;20116;-76
2022/11/18 02:02:42;;;;;;;4.45;2.80;;;;;;;;;;2073835;28;20033;-75
2022/11/18 02:04:02;;;;;;;3.38;2.65;;;;;;;;;;2077246;28;20029;-75
2022/11/18 02:05:21;;;;;;;12.77;2.70;;;;;;;;;;2073498;28;20021;-76
2022/11/18 02:06:41;;;;;;;2.63;2.40;;;;;;;;;;2081792;28;20025;-75
2022/11/18 02:08:00;;;;;;;3.17;2.67;;;;;;;;;;2075354;28;20030;-75
2022/11/18 02:09:19;;;;;;;2.83;2.38;;;;;;;;;;2081671;28;20025;-75
2022/11/18 02:10:39;;;;;;;2.55;2.17;;;;;;;;;;2085099;28;20032;-76
2022/11/18 02:11:58;;;;;;;2.42;1.88;;;;;;;;;;2086025;28;20056;-75
2022/11/18 02:13:17;;;;;;;4.50;2.00;;;;;;;;;;2085496;28;20053;-75
2022/11/18 02:14:37;;;;;;;2.78;2.45;;;;;;;;;;2077221;28;20041;-75
2022/11/18 02:15:56;;;;;;;3.80;2.10;;;;;;;;;;2073122;28;20041;-76
2022/11/18 02:17:27;;;;;;;3.60;2.15;;;;;;;;;;2072752;28;20041;-76
2022/11/18 02:18:53;;;;;;;2.65;2.22;;;;;;;;;;2077032;28;20045;-76
2022/11/18 02:20:12;;;;;;;4.05;1.75;;;;;;;;;;2076043;28;20045;-76
2022/11/18 02:21:47;;;;;;;6.47;2.00;;;;;;;;;;2083030;28;20036;-76
2022/11/18 02:23:05;;;;;;;2.72;1.92;;;;;;;;;;2077744;28;20033;-76
2022/11/18 02:24:24;;;;;;;2.00;1.55;;;;;;;;;;2071849;28;20073;-76
2022/11/18 02:26:19;;;;;;;4.75;2.00;;;;;;;;;;2083122;28;20029;-76
2022/11/18 02:27:47;;;;;;;4.00;1.73;;;;;;;;;;2043953;28;20054;-76
2022/11/18 02:29:06;;;;;;;2.80;2.03;;;;;;;;;;2047829;28;20035;-77
2022/11/18 02:30:25;;;;;;;3.58;1.90;;;;;;;;;;2070933;28;20034;-76
2022/11/18 02:31:47;;;;;;;2.28;1.75;;;;;;;;;;2082684;28;20029;-76
2022/11/18 02:33:07;;;;;;;3.55;1.60;;;;;;;;;;2083153;28;20025;-76
2022/11/18 02:34:37;;;;;;;2.45;1.60;;;;;;;;;;2082197;28;20406;-76
2022/11/18 02:36:00;;;;;;;2.72;1.90;;;;;;;;;;2078946;28;20514;-76
2022/11/18 02:37:27;;;;;;;2.00;1.73;;;;;;;;;;2082305;28;20041;-76
2022/11/18 02:38:53;;;;;;;4.30;1.83;;;;;;;;;;2078106;28;20148;-79
2022/11/18 02:40:15;;;;;;;3.30;2.10;;;;;;;;;;2077285;28;20116;-76
2022/11/18 02:41:35;;;;;;;2.08;1.42;;;;;;;;;;2081454;28;20148;-76
2022/11/18 02:42:57;;;;;;;3.83;2.00;;;;;;;;;;2074814;28;20026;-76
2022/11/18 02:44:17;;;;;;;2.67;1.73;;;;;;;;;;2079822;28;20036;-76
2022/11/18 02:45:38;;;;;;;2.67;1.92;;;;;;;;;;2084486;28;21410;-76
2022/11/18 02:47:00;;;;;;;2.40;1.70;;;;;;;;;;2084087;28;20096;-76
2022/11/18 02:48:20;;;;;;;3.88;1.77;;;;;;;;;;2077910;28;20215;-76
2022/11/18 02:49:45;;;;;;;2.35;1.70;;;;;;;;;;2073618;28;20030;-76
2022/11/18 02:51:05;;;;;;;2.60;1.70;;;;;;;;;;2074268;28;20422;-76
2022/11/18 02:52:26;;;;;;;3.88;2.13;;;;;;;;;;2080477;28;20033;-76
2022/11/18 02:53:46;;;;;;;2.03;1.70;;;;;;;;;;2084782;28;20025;-76
2022/11/18 02:55:07;;;;;;;1.60;1.50;;;;;;;;;;2087076;28;20490;-76
2022/11/18 02:56:27;;;;;;;2.30;1.90;;;;;;;;;;2075309;28;20041;-76
2022/11/18 02:57:46;;;;;;;3.50;1.70;;;;;;;;;;2082112;28;20025;-76
2022/11/18 02:59:05;;;;;;;3.13;1.98;;;;;;;;;;2074768;28;20124;-76
2022/11/18 03:00:24;;;;;;;4.50;1.95;;;;;;;;;;2071178;28;20172;-76
2022/11/18 03:01:42;;;;;;;1.83;1.73;;;;;;;;;;2068942;28;20029;-76
2022/11/18 03:03:20;;;;;;;2.13;1.90;;;;;;;;;;2079629;28;20041;-76
2022/11/18 03:04:39;;;;;;;2.30;1.83;;;;;;;;;;2076593;28;20038;-76
2022/11/18 03:05:58;;;;;;;4.15;2.38;;;;;;;;;;2081010;28;20029;-76
2022/11/18 03:07:20;;;;;;;1.80;1.70;;;;;;;;;;2070581;28;21538;-75
2022/11/18 03:08:45;;;;;;;4.32;2.10;;;;;;;;;;2083313;28;20025;-76
2022/11/18 03:10:04;;;;;;;3.45;2.30;;;;;;;;;;2078497;28;20029;-76
2022/11/18 03:11:26;;;;;;;2.53;1.67;;;;;;;;;;2078619;28;20026;-76
2022/11/18 03:12:48;;;;;;;2.25;1.90;;;;;;;;;;2080368;28;20021;-76
2022/11/18 03:14:15;;;;;;;3.75;2.10;;;;;;;;;;2077140;28;20057;-76
2022/11/18 03:15:34;;;;;;;3.28;2.00;;;;;;;;;;2083013;28;20025;-75
2022/11/18 03:17:05;;;;;;;2.55;2.03;;;;;;;;;;2076800;28;20518;-76
2022/11/18 03:18:27;;;;;;;2.88;1.83;;;;;;;;;;2073398;28;20045;-76
2022/11/18 03:20:02;;;;;;;6.22;2.20;;;;;;;;;;2081948;28;20029;-76
2022/11/18 03:21:26;;;;;;;2.53;2.05;;;;;;;;;;2076739;28;20527;-76
2022/11/18 03:22:53;;;;;;;4.13;1.92;;;;;;;;;;2082874;28;20033;-76
2022/11/18 03:24:18;;;;;;;2.55;1.75;;;;;;;;;;2083448;28;20033;-76
2022/11/18 03:25:48;;;;;;;2.83;1.70;;;;;;;;;;2084361;28;20021;-76
2022/11/18 03:27:13;;;;;;;2.00;1.63;;;;;;;;;;2086657;28;20017;-76
2022/11/18 03:28:35;;;;;;;2.05;1.58;;;;;;;;;;2084409;28;20025;-76
2022/11/18 03:29:58;;;;;;;1.70;1.60;;;;;;;;;;2074113;28;20029;-76
2022/11/18 03:31:17;;;;;;;;;;;;;;;;;;2073836;28;20033;-76
2022/11/18 03:32:40;;;;;;;2.85;1.63;;;;;;;;;;2073334;28;19917;-76
2022/11/18 03:34:02;;;;;;;2.28;1.60;;;;;;;;;;2082627;28;20037;-76
2022/11/18 03:35:22;;;;;;;3.85;1.90;;;;;;;;;;2084719;28;20167;-76
2022/11/18 03:36:43;;;;;;;2.35;1.80;;;;;;;;;;2085612;28;20032;-75
2022/11/18 03:38:06;;;;;;;2.50;1.80;;;;;;;;;;2084245;28;21461;-76
2022/11/18 03:39:27;;;;;;;3.38;1.98;;;;;;;;;;2083798;28;20033;-76
2022/11/18 03:40:49;;;;;;;1.67;1.45;;;;;;;;;;2072486;28;20104;-79
2022/11/18 03:42:11;;;;;;;1.70;1.60;;;;;;;;;;2073265;28;20041;-79
2022/11/18 03:43:33;;;;;;;2.33;2.00;;;;;;;;;;2074186;28;20038;-79
2022/11/18 03:44:59;;;;;;;1.92;1.58;;;;;;;;;;2082968;28;20029;-79
2022/11/18 03:46:27;;;;;;;1.63;1.52;;;;;;;;;;2084336;28;20506;-76
2022/11/18 03:47:52;;;;;;;2.92;1.27;;;;;;;;;;2086579;28;20071;-76
2022/11/18 03:49:14;;;;;;;2.75;1.60;;;;;;;;;;2085643;28;20040;-76
2022/11/18 03:50:36;;;;;;;2.88;1.75;;;;;;;;;;2085075;28;20033;-76
2022/11/18 03:51:57;;;;;;;3.88;1.70;;;;;;;;;;2076753;28;20025;-76
2022/11/18 03:53:17;;;;;;;3.60;1.80;;;;;;;;;;2074045;28;20033;-76
2022/11/18 03:54:38;;;;;;;2.00;1.73;;;;;;;;;;2070854;28;20029;-76
2022/11/18 03:55:59;;;;;;;3.10;1.70;;;;;;;;;;2075712;28;20150;-76
2022/11/18 03:57:41;;;;;;;2.10;1.70;;;;;;;;;;2084817;28;20021;-76
2022/11/18 03:59:12;;;;;;;4.60;1.70;;;;;;;;;;2075999;28;20041;-76
2022/11/18 04:00:38;;;;;;;3.50;1.85;;;;;;;;;;2082975;28;20033;-76
2022/11/18 04:02:07;;;;;;;1.90;1.80;;;;;;;;;;2086170;28;20028;-76
2022/11/18 04:03:27;;;;;;;4.93;1.80;;;;;;;;;;2085369;28;20033;-76
2022/11/18 04:04:47;;;;;;;3.97;2.08;;;;;;;;;;2085372;28;20041;-76
2022/11/18 04:06:14;;;;;;;2.55;1.60;;;;;;;;;;2086076;28;20108;-76
2022/11/18 04:07:36;;;;;;;2.38;1.40;;;;;;;;;;2085422;28;20029;-76
2022/11/18 04:08:58;;;;;;;1.60;1.50;;;;;;;;;;2084363;28;20157;-77
2022/11/18 04:10:18;;;;;;;3.65;1.80;;;;;;;;;;2085065;28;20508;-76
2022/11/18 04:13:19;;;;;;;2.38;1.50;;;;;;;;;;2084844;28;20502;-79
2022/11/18 04:14:40;;;;;;;3.28;1.70;;;;;;;;;;2078126;28;20120;-79
2022/11/18 04:15:59;;;;;;;5.72;2.05;;;;;;;;;;2064989;28;20034;-79
2022/11/18 04:17:22;;;;;;;2.28;1.67;;;;;;;;;;2063780;28;20503;-80
2022/11/18 04:18:41;;;;;;;2.05;1.58;;;;;;;;;;2075198;28;20041;-79
2022/11/18 04:20:00;;;;;;;2.00;1.48;;;;;;;;;;2077413;28;20041;-79
2022/11/18 04:21:19;;;;;;;2.47;1.85;;;;;;;;;;2068235;28;20038;-80
2022/11/18 04:22:38;;;;;;;6.22;1.70;;;;;;;;;;2072420;28;20475;-79
2022/11/18 04:23:57;;;;;;;1.90;1.70;;;;;;;;;;2076255;28;20038;-79
2022/11/18 04:25:16;;;;;;;3.85;1.63;;;;;;;;;;2069571;28;20153;-79
2022/11/18 04:26:35;;;;;;;6.28;1.90;;;;;;;;;;2066436;28;20034;-79
2022/11/18 04:27:54;;;;;;;3.63;1.80;;;;;;;;;;2070062;28;20033;-80
2022/11/18 04:29:13;;;;;;;5.95;2.08;;;;;;;;;;2069010;28;20034;-80
2022/11/18 04:30:32;;;;;;;3.13;1.63;;;;;;;;;;2073258;28;20534;-80
2022/11/18 04:31:50;;;;;;;3.25;1.70;;;;;;;;;;2076106;28;20308;-79
2022/11/18 04:33:09;;;;;;;5.00;1.50;;;;;;;;;;2068970;28;20034;-79
2022/11/18 04:34:29;;;;;;;2.70;1.60;;;;;;;;;;2065834;28;20042;-79
2022/11/18 04:35:48;;;;;;;4.20;1.90;;;;;;;;;;2076496;28;20034;-79
2022/11/18 04:37:07;;;;;;;6.70;1.65;;;;;;;;;;2077653;28;20029;-79
2022/11/18 04:38:26;;;;;;;3.67;1.55;;;;;;;;;;2078897;28;20124;-77
2022/11/18 04:39:45;;;;;;;3.60;1.88;;;;;;;;;;2078681;28;20152;-77
2022/11/18 04:41:04;;;;;;;3.95;1.83;;;;;;;;;;2079383;28;20029;-76
2022/11/18 04:42:23;;;;;;;6.38;1.48;;;;;;;;;;2079016;28;20025;-77
2022/11/18 04:43:42;;;;;;;2.20;1.67;;;;;;;;;;2079523;28;20033;-76
2022/11/18 04:45:01;;;;;;;3.15;1.75;;;;;;;;;;2071046;28;20030;-77
2022/11/18 04:46:20;;;;;;;2.80;1.67;;;;;;;;;;2068350;28;20061;-77
2022/11/18 04:47:40;;;;;;;5.70;1.45;;;;;;;;;;2065669;28;20025;-76
2022/11/18 04:48:59;;;;;;;3.33;1.65;;;;;;;;;;2075482;28;20026;-76
2022/11/18 04:50:18;;;;;;;4.40;1.60;;;;;;;;;;2071548;28;20506;-76
2022/11/18 04:51:37;;;;;;;4.28;1.48;;;;;;;;;;2066496;28;20053;-76
2022/11/18 04:52:55;;;;;;;3.17;1.63;;;;;;;;;;2066581;28;20041;-76
2022/11/18 04:54:15;;;;;;;2.38;1.58;;;;;;;;;;2069961;28;20050;-76
2022/11/18 04:55:34;;;;;;;3.05;1.60;;;;;;;;;;2076571;28;20069;-76
2022/11/18 04:56:54;;;;;;;1.90;1.60;;;;;;;;;;2070124;28;20026;-76
2022/11/18 04:58:13;;;;;;;2.92;1.40;;;;;;;;;;2075463;28;20033;-76
2022/11/18 04:59:32;;;;;;;3.75;1.30;;;;;;;;;;2078543;28;20037;-77
2022/11/18 05:00:51;;;;;;;2.55;1.33;;;;;;;;;;2076360;28;20440;-76
2022/11/18 05:02:10;;;;;;;2.30;1.33;;;;;;;;;;2069640;28;20038;-76
2022/11/18 05:03:28;;;;;;;4.03;1.25;;;;;;;;;;2075207;28;20107;-76
2022/11/18 05:04:47;;;;;;;5.00;1.48;;;;;;;;;;2069163;28;20034;-76
2022/11/18 05:06:06;;;;;;;2.03;1.35;;;;;;;;;;2073576;28;20033;-76
2022/11/18 05:07:25;;;;;;;3.97;1.40;;;;;;;;;;2078280;28;20390;-76
2022/11/18 05:08:44;;;;;;;4.18;1.33;;;;;;;;;;2067236;28;20030;-76
2022/11/18 05:10:03;;;;;;;3.42;1.20;;;;;;;;;;2071786;28;20033;-77
2022/11/18 05:13:01;;;;;;;1.92;1.70;;;;;;;;;;2078693;28;20045;-76
2022/11/18 05:14:20;;;;;;;3.50;1.30;;;;;;;;;;2076404;28;20049;-76
2022/11/18 05:15:39;;;;;;;9.57;1.77;;;;;;;;;;2074796;28;20026;-76
2022/11/18 05:16:58;;;;;;;2.70;1.40;;;;;;;;;;2083591;28;20370;-79
2022/11/18 05:18:18;;;;;;;3.63;1.77;;;;;;;;;;2087656;28;20037;-80
2022/11/18 05:19:38;;;;;;;3.05;1.42;;;;;;;;;;2087332;28;20061;-80
2022/11/18 05:20:57;;;;;;;5.30;1.75;;;;;;;;;;2076548;28;20479;-80
2022/11/18 05:22:15;;;;;;;2.55;1.45;;;;;;;;;;2075861;28;20402;-79
2022/11/18 05:23:34;;;;;;;2.22;1.63;;;;;;;;;;2081182;28;20052;-79
2022/11/18 05:24:53;;;;;;;2.33;1.35;;;;;;;;;;2085807;28;20041;-80
2022/11/18 05:26:12;;;;;;;6.93;1.50;;;;;;;;;;2078905;28;20432;-79
2022/11/18 05:27:31;;;;;;;3.65;1.42;;;;;;;;;;2083363;28;20036;-79
2022/11/18 05:28:50;;;;;;;2.15;1.20;;;;;;;;;;2088031;28;20025;-79
2022/11/18 05:30:09;;;;;;;2.75;1.15;;;;;;;;;;2082274;28;20037;-80
2022/11/18 05:31:28;;;;;;;1.95;1.10;;;;;;;;;;2086949;28;20029;-79
2022/11/18 05:32:47;;;;;;;2.42;1.38;;;;;;;;;;2075963;28;20526;-79
2022/11/18 05:34:05;;;;;;;2.63;1.25;;;;;;;;;;2075223;28;20045;-79
2022/11/18 05:35:24;;;;;;;4.78;1.67;;;;;;;;;;2081528;28;20502;-79
2022/11/18 05:36:43;;;;;;;4.18;1.40;;;;;;;;;;2077871;28;20061;-79
2022/11/18 05:38:02;;;;;;;1.48;1.38;;;;;;;;;;2072833;28;20045;-80
2022/11/18 05:39:21;;;;;;;7.30;1.55;;;;;;;;;;2073578;28;20418;-79
2022/11/18 05:40:43;;;;;;;5.10;1.40;;;;;;;;;;2075178;28;20045;-79
2022/11/18 05:43:40;;;;;;;2.50;1.20;;;;;;;;;;2084701;28;20033;-79
2022/11/18 05:44:59;;;;;;;3.92;1.10;;;;;;;;;;2087921;28;20051;-78
2022/11/18 05:46:18;;;;;;;2.20;1.35;;;;;;;;;;2077629;28;20034;-79
2022/11/18 05:47:58;;;;;;;3.55;1.10;;;;;;;;;;2082264;28;20021;-78
2022/11/18 05:49:16;;;;;;;1.25;0.90;;;;;;;;;;2087766;28;20029;-80
2022/11/18 05:50:36;;;;;;;2.92;1.30;;;;;;;;;;2078016;28;20021;-77
2022/11/18 05:51:55;;;;;;;5.20;1.38;;;;;;;;;;2079594;28;20727;-77
2022/11/18 05:53:15;;;;;;;3.22;1.30;;;;;;;;;;2077801;28;20049;-77
2022/11/18 05:54:34;;;;;;;2.72;1.10;;;;;;;;;;2075673;28;20025;-76
2022/11/18 05:55:53;;;;;;;1.50;1.00;;;;;;;;;;2075247;28;20128;-78
2022/11/18 05:57:12;;;;;;;2.58;1.10;;;;;;;;;;2075880;28;20069;-76
2022/11/18 05:58:31;;;;;;;3.85;1.35;;;;;;;;;;2083845;28;20033;-77
2022/11/18 05:59:50;;;;;;;2.00;0.90;;;;;;;;;;2087926;28;20398;-77
2022/11/18 06:01:11;;;;;;;1.35;1.17;;;;;;;;;;2085589;28;20553;-77
2022/11/18 06:02:29;;;;;;;1.98;1.50;;;;;;;;;;2088537;28;20045;-77
2022/11/18 06:03:49;;;;;;;1.85;1.10;;;;;;;;;;2089292;28;20455;-76
2022/11/18 06:05:08;;;;;;;4.75;1.38;;;;;;;;;;2075540;28;20753;-78
2022/11/18 06:06:27;;;;;;;3.17;1.33;;;;;;;;;;2081452;28;20029;-77
2022/11/18 06:07:46;;;;;;;2.85;1.40;;;;;;;;;;2076938;28;20319;-77
2022/11/18 06:09:06;;;;;;;1.65;1.00;;;;;;;;;;2083681;28;20024;-77
2022/11/18 06:10:29;;;;;;;3.78;1.33;;;;;;;;;;2088002;28;20123;-79
2022/11/18 06:11:51;;;;;;;4.57;1.38;;;;;;;;;;2076845;28;20458;-80
2022/11/18 06:13:14;;;;;;;5.70;1.20;;;;;;;;;;2083174;28;20065;-77
2022/11/18 06:14:41;;;;;;;2.85;1.55;;;;;;;;;;2086253;28;20041;-80
2022/11/18 06:16:01;;;;;;;2.78;1.10;;;;;;;;;;2078141;28;20522;-77
2022/11/18 06:17:26;;;;;;;7.25;1.38;;;;;;;;;;2084372;28;20036;-78
2022/11/18 06:18:45;;;;;;;1.92;0.85;;;;;;;;;;2083234;28;20029;-77
2022/11/18 06:20:05;;;;;;;2.65;1.63;;;;;;;;;;2076953;28;20037;-78
2022/11/18 06:21:24;;;;;;;7.18;1.70;;;;;;;;;;2073650;28;20037;-77
2022/11/18 06:22:43;;;;;;;1.23;0.93;;;;;;;;;;2080742;28;20583;-77
2022/11/18 06:24:02;;;;;;;4.72;1.23;;;;;;;;;;2077131;28;20045;-78
2022/11/18 06:25:22;;;;;;;2.97;1.38;;;;;;;;;;2083646;28;20025;-78
2022/11/18 06:26:41;;;;;;;3.28;1.50;;;;;;;;;;2074813;28;20026;-77
2022/11/18 06:28:01;;;;;;;1.45;1.08;;;;;;;;;;2082774;28;20866;-77
2022/11/18 06:29:20;;;;;;;2.97;1.17;;;;;;;;;;2084400;28;20033;-78
2022/11/18 06:30:39;;;;;;;2.75;1.40;;;;;;;;;;2077847;28;20025;-78
2022/11/18 06:31:58;;;;;;;2.45;1.40;;;;;;;;;;2083646;28;20438;-77
2022/11/18 06:33:17;;;;;;;3.53;1.05;;;;;;;;;;2088091;28;20079;-77
2022/11/18 06:34:36;;;;;;;7.85;1.42;;;;;;;;;;2076306;28;20037;-78
2022/11/18 06:35:55;;;;;;;5.28;1.80;;;;;;;;;;2077182;28;20120;-77
2022/11/18 06:37:14;;;;;;;2.90;1.70;;;;;;;;;;2085374;28;20037;-77
2022/11/18 06:38:33;;;;;;;1.70;1.40;;;;;;;;;;2087939;28;20506;-77
2022/11/18 06:39:52;;;;;;;2.95;1.80;;;;;;;;;;2077518;28;20069;-77
2022/11/18 06:41:12;;;;;;;3.42;2.28;;;;;;;;;;2075772;28;20033;-77
2022/11/18 06:44:12;;;;;;;5.35;2.10;;;;;;;;;;2088648;28;20455;-79
2022/11/18 06:45:31;;;;;;;3.95;2.00;;;;;;;;;;2077594;28;20021;-78
2022/11/18 06:46:56;;;;;;;2.92;2.08;;;;;;;;;;2084298;28;20021;-79
2022/11/18 06:48:15;;;;;;;4.57;1.85;;;;;;;;;;2089458;28;20470;-79
2022/11/18 06:49:34;;;;;;;2.15;1.67;;;;;;;;;;2088841;28;20021;-78
2022/11/18 06:50:53;;;;;;;3.53;2.22;;;;;;;;;;2080517;28;20113;-79
2022/11/18 06:52:11;;;;;;;3.47;2.45;;;;;;;;;;2085208;28;20040;-80
2022/11/18 06:53:32;;;;;;;2.50;1.50;;;;;;;;;;2079999;28;20030;-79
2022/11/18 06:54:50;;;;;;;3.25;1.40;;;;;;;;;;2081551;28;20437;-79
2022/11/18 06:56:11;;;;;;;1.70;1.20;;;;;;;;;;2077391;28;20453;-80
2022/11/18 06:57:30;;;;;;;6.93;1.45;;;;;;;;;;2081440;28;20351;-80
2022/11/18 06:58:56;;;;;;;2.67;1.20;;;;;;;;;;2078530;28;20416;-80
2022/11/18 07:00:15;;;;;;;3.42;1.13;;;;;;;;;;2085719;28;20029;-79
2022/11/18 07:01:35;;;;;;;3.33;1.08;;;;;;;;;;2082334;28;20034;-80
2022/11/18 07:02:55;;;;;;;3.45;1.40;;;;;;;;;;2069064;28;20034;-80
2022/11/18 07:04:13;;;;;;;2.85;1.73;;;;;;;;;;2082075;28;20025;-79
2022/11/18 07:05:32;;;;;;;3.17;1.80;;;;;;;;;;2080011;28;20104;-79
2022/11/18 07:06:51;;;;;;;1.73;1.60;;;;;;;;;;2085114;28;20029;-80
2022/11/18 07:08:10;;;;;;;3.15;1.60;;;;;;;;;;2080228;28;20069;-79
2022/11/18 07:09:29;;;;;;;3.30;1.58;;;;;;;;;;2076575;28;20021;-80
2022/11/18 07:10:51;;;;;;;5.22;1.60;;;;;;;;;;2085915;28;20120;-80
2022/11/18 07:12:10;;;;;;;4.70;3.38;;;;;;;;;;2077544;28;20057;-79
2022/11/18 07:13:29;;;;;;;2.08;1.38;;;;;;;;;;2083984;28;20450;-80
2022/11/18 07:14:48;;;;;;;4.45;1.17;;;;;;;;;;2081050;28;20125;-79
2022/11/18 07:16:09;;;;;;;2.15;1.27;;;;;;;;;;2085416;28;20437;-79
2022/11/18 07:17:31;;;;;;;3.42;1.20;;;;;;;;;;2088460;28;20028;-80
2022/11/18 07:18:51;;;;;;;3.78;1.42;;;;;;;;;;2080387;28;20033;-79
2022/11/18 07:20:10;;;;;;;4.75;1.40;;;;;;;;;;2077178;28;20061;-79
2022/11/18 07:21:29;;;;;;;1.33;1.08;;;;;;;;;;2085094;28;20028;-79
2022/11/18 07:22:51;;;;;;;2.72;1.65;;;;;;;;;;2088554;28;20029;-79
2022/11/18 07:24:11;;;;;;;3.83;1.40;;;;;;;;;;2080557;28;20068;-79
2022/11/18 07:25:30;;;;;;;2.60;1.63;;;;;;;;;;2076431;28;20029;-80
2022/11/18 07:26:49;;;;;;;1.70;1.38;;;;;;;;;;2074835;28;20038;-80
2022/11/18 07:28:07;;;;;;;3.85;1.67;;;;;;;;;;2076645;28;20515;-79
2022/11/18 07:29:26;;;;;;;2.35;1.45;;;;;;;;;;2075535;28;20041;-80
2022/11/18 07:30:45;;;;;;;2.70;1.40;;;;;;;;;;2077596;28;20475;-79
2022/11/18 07:32:05;;;;;;;5.03;1.70;;;;;;;;;;2076384;28;20033;-80
2022/11/18 07:33:24;;;;;;;2.78;1.95;;;;;;;;;;2075537;28;20021;-80
2022/11/18 07:34:43;;;;;;;1.58;1.48;;;;;;;;;;2084697;28;20041;-82
2022/11/18 07:36:13;;;;;;;1.58;1.48;;;;;;;;;;2080316;28;20033;-80
2022/11/18 07:37:32;;;;;;;2.80;1.80;;;;;;;;;;2077984;28;20029;-80
2022/11/18 07:38:52;;;;;;;2.60;1.50;;;;;;;;;;2085602;28;20033;-80
2022/11/18 07:40:11;;;;;;;1.48;1.13;;;;;;;;;;2082066;28;20108;-80
2022/11/18 07:41:30;;;;;;;2.80;1.33;;;;;;;;;;2077705;28;20037;-80
2022/11/18 07:42:50;;;;;;;3.45;1.45;;;;;;;;;;2077150;28;20065;-80
2022/11/18 07:44:10;;;;;;;4.15;1.50;;;;;;;;;;2076030;28;20407;-81
2022/11/18 07:45:29;;;;;;;2.67;1.45;;;;;;;;;;2083882;28;20036;-80
2022/11/18 07:46:48;;;;;;;3.28;1.52;;;;;;;;;;2088652;28;20064;-80
2022/11/18 07:48:07;;;;;;;3.00;2.08;;;;;;;;;;2088694;28;20029;-78
2022/11/18 07:49:26;;;;;;;3.45;1.67;;;;;;;;;;2079907;28;20249;-79
2022/11/18 07:50:45;;;;;;;2.65;1.60;;;;;;;;;;2083972;28;20013;-78
2022/11/18 07:52:04;;;;;;;2.25;1.60;;;;;;;;;;2088248;28;20025;-78
2022/11/18 07:53:22;;;;;;;3.45;1.92;;;;;;;;;;2080090;28;20045;-78
2022/11/18 07:54:41;;;;;;;3.50;1.80;;;;;;;;;;2085598;28;20390;-78
2022/11/18 07:56:00;;;;;;;2.72;1.67;;;;;;;;;;2089469;28;20021;-78
2022/11/18 07:57:19;;;;;;;3.00;2.30;;;;;;;;;;2089234;28;20065;-78
2022/11/18 07:58:38;;;;;;;4.82;1.75;;;;;;;;;;2080902;28;20033;-79
2022/11/18 07:59:57;;;;;;;5.43;1.80;;;;;;;;;;2077247;28;20034;-79
2022/11/18 08:01:18;;;;;;;5.63;2.22;;;;;;;;;;2076498;28;20118;-79
2022/11/18 08:02:37;;;;;;;1.98;1.85;;;;;;;;;;2084651;28;20111;-80
2022/11/18 08:03:56;;;;;;;2.65;1.80;;;;;;;;;;2082270;28;20128;-79
2022/11/18 08:05:16;;;;;;;4.97;1.90;;;;;;;;;;2081365;28;20109;-79
2022/11/18 08:06:35;;;;;;;5.00;1.77;;;;;;;;;;2085181;28;20056;-79
2022/11/18 08:07:54;;;;;;;1.70;1.40;;;;;;;;;;2076453;28;20256;-81
2022/11/18 08:09:13;;;;;;;3.35;1.80;;;;;;;;;;2084428;28;20112;-82
2022/11/18 08:10:31;;;;;;;3.03;1.70;;;;;;;;;;2080467;28;20434;-82
2022/11/18 08:11:50;;;;;;;2.00;1.70;;;;;;;;;;2076978;28;20025;-81
2022/11/18 08:13:09;;;;;;;4.57;2.47;;;;;;;;;;2076000;28;20108;-80
2022/11/18 08:14:28;;;;;;;1.90;1.67;;;;;;;;;;2075898;28;20041;-81
2022/11/18 08:15:46;;;;;;;2.45;1.52;;;;;;;;;;2083854;28;20498;-79
2022/11/18 08:17:05;;;;;;;2.45;1.83;;;;;;;;;;2080465;28;20038;-81